sensor_id;sensor_type;location;lat;lon;timestamp;pressure;altitude;pressure_sealevel;temperature;humidity
72925;BME280;61070;50.794;7.054;2023-12-04T00:00:08;100973.28;;;-0.08;70.12
72925;BME280;61070;50.794;7.054;2023-12-04T00:01:09;100972.44;;;0.05;69.89
72925;BME280;61070;50.794;7.054;2023-12-04T00:02:09;100968.13;;;-0.08;70.25
72925;BME280;61070;50.794;7.054;2023-12-04T00:03:09;100967.25;;;0.07;69.48
72925;BME280;61070;50.794;7.054;2023-12-04T00:04:09;100971.56;;;0.00;69.55
72925;BME280;61070;50.794;7.054;2023-12-04T00:05:10;100975.88;;;0.03;69.07
72925;BME280;61070;50.794;7.054;2023-12-04T00:06:11;100962.97;;;-0.04;69.83
72925;BME280;61070;50.794;7.054;2023-12-04T00:07:11;100966.38;;;-0.06;69.79
72925;BME280;61070;50.794;7.054;2023-12-04T00:08:12;100966.38;;;-0.02;69.53
72925;BME280;61070;50.794;7.054;2023-12-04T00:09:12;100964.69;;;0.07;69.18
72925;BME280;61070;50.794;7.054;2023-12-04T00:10:12;100959.50;;;0.04;69.22
72925;BME280;61070;50.794;7.054;2023-12-04T00:11:13;100952.59;;;0.04;69.38
72925;BME280;61070;50.794;7.054;2023-12-04T00:12:13;100950.88;;;0.05;69.20
72925;BME280;61070;50.794;7.054;2023-12-04T00:13:13;100940.56;;;-0.03;69.15
72925;BME280;61070;50.794;7.054;2023-12-04T00:14:13;100944.03;;;0.01;69.34
72925;BME280;61070;50.794;7.054;2023-12-04T00:15:14;100937.97;;;0.11;68.60
72925;BME280;61070;50.794;7.054;2023-12-04T00:16:14;100937.97;;;0.05;68.79
72925;BME280;61070;50.794;7.054;2023-12-04T00:17:14;100938.00;;;0.00;69.63
72925;BME280;61070;50.794;7.054;2023-12-04T00:18:15;100934.53;;;-0.02;68.83
72925;BME280;61070;50.794;7.054;2023-12-04T00:19:15;100931.97;;;-0.04;69.25
72925;BME280;61070;50.794;7.054;2023-12-04T00:20:15;100938.84;;;-0.09;69.74
72925;BME280;61070;50.794;7.054;2023-12-04T00:21:15;100931.94;;;-0.07;69.94
72925;BME280;61070;50.794;7.054;2023-12-04T00:22:16;100927.66;;;-0.09;69.25
72925;BME280;61070;50.794;7.054;2023-12-04T00:23:16;100931.97;;;-0.10;69.64
72925;BME280;61070;50.794;7.054;2023-12-04T00:24:16;100934.56;;;-0.08;68.95
72925;BME280;61070;50.794;7.054;2023-12-04T00:25:17;100932.81;;;-0.08;69.20
72925;BME280;61070;50.794;7.054;2023-12-04T00:26:17;100941.44;;;-0.18;69.45
72925;BME280;61070;50.794;7.054;2023-12-04T00:27:17;100929.41;;;-0.10;69.28
72925;BME280;61070;50.794;7.054;2023-12-04T00:28:18;100931.13;;;-0.15;69.33
72925;BME280;61070;50.794;7.054;2023-12-04T00:29:18;100930.25;;;-0.08;69.12
72925;BME280;61070;50.794;7.054;2023-12-04T00:30:18;100931.09;;;-0.12;69.53
72925;BME280;61070;50.794;7.054;2023-12-04T00:31:18;100929.38;;;-0.13;69.75
72925;BME280;61070;50.794;7.054;2023-12-04T00:32:19;100931.94;;;-0.25;70.22
72925;BME280;61070;50.794;7.054;2023-12-04T00:33:19;100923.34;;;-0.12;69.52
72925;BME280;61070;50.794;7.054;2023-12-04T00:34:19;100923.34;;;-0.07;68.94
72925;BME280;61070;50.794;7.054;2023-12-04T00:35:20;100924.22;;;-0.14;69.00
72925;BME280;61070;50.794;7.054;2023-12-04T00:36:20;100922.50;;;-0.03;68.71
72925;BME280;61070;50.794;7.054;2023-12-04T00:37:20;100919.06;;;-0.10;69.28
72925;BME280;61070;50.794;7.054;2023-12-04T00:38:20;100925.09;;;-0.09;69.08
72925;BME280;61070;50.794;7.054;2023-12-04T00:39:21;100926.78;;;-0.22;69.63
72925;BME280;61070;50.794;7.054;2023-12-04T00:40:21;100930.25;;;-0.23;70.02
72925;BME280;61070;50.794;7.054;2023-12-04T00:41:21;100915.59;;;-0.27;69.65
72925;BME280;61070;50.794;7.054;2023-12-04T00:42:22;100917.34;;;-0.20;69.36
72925;BME280;61070;50.794;7.054;2023-12-04T00:43:22;100916.47;;;-0.22;69.56
72925;BME280;61070;50.794;7.054;2023-12-04T00:44:22;100918.19;;;-0.13;68.99
72925;BME280;61070;50.794;7.054;2023-12-04T00:45:22;100913.03;;;-0.22;69.29
72925;BME280;61070;50.794;7.054;2023-12-04T00:46:23;100906.13;;;-0.22;69.27
72925;BME280;61070;50.794;7.054;2023-12-04T00:47:23;100911.31;;;-0.31;69.43
72925;BME280;61070;50.794;7.054;2023-12-04T00:48:23;100902.69;;;-0.32;69.78
72925;BME280;61070;50.794;7.054;2023-12-04T00:49:24;100912.19;;;-0.29;69.96
72925;BME280;61070;50.794;7.054;2023-12-04T00:50:24;100913.03;;;-0.19;69.90
72925;BME280;61070;50.794;7.054;2023-12-04T00:51:24;100911.31;;;-0.13;69.08
72925;BME280;61070;50.794;7.054;2023-12-04T00:52:25;100909.56;;;-0.31;69.71
72925;BME280;61070;50.794;7.054;2023-12-04T00:53:25;100907.84;;;-0.30;69.57
72925;BME280;61070;50.794;7.054;2023-12-04T00:54:26;100903.56;;;-0.22;69.21
72925;BME280;61070;50.794;7.054;2023-12-04T00:55:26;100901.84;;;-0.23;69.52
72925;BME280;61070;50.794;7.054;2023-12-04T00:56:26;100900.97;;;-0.22;69.37
72925;BME280;61070;50.794;7.054;2023-12-04T00:57:27;100896.69;;;-0.38;69.71
72925;BME280;61070;50.794;7.054;2023-12-04T00:58:27;100907.88;;;-0.32;69.95
72925;BME280;61070;50.794;7.054;2023-12-04T00:59:27;100898.38;;;-0.25;69.28
72925;BME280;61070;50.794;7.054;2023-12-04T01:00:27;100895.81;;;-0.31;69.75
72925;BME280;61070;50.794;7.054;2023-12-04T01:01:28;100894.09;;;-0.29;69.73
72925;BME280;61070;50.794;7.054;2023-12-04T01:02:28;100899.25;;;-0.15;69.40
72925;BME280;61070;50.794;7.054;2023-12-04T01:03:28;100895.81;;;-0.22;69.15
72925;BME280;61070;50.794;7.054;2023-12-04T01:04:33;100885.50;;;-0.27;69.48
72925;BME280;61070;50.794;7.054;2023-12-04T01:05:33;100891.50;;;-0.32;69.69
72925;BME280;61070;50.794;7.054;2023-12-04T01:06:35;100888.06;;;-0.37;70.30
72925;BME280;61070;50.794;7.054;2023-12-04T01:07:36;100893.22;;;-0.31;69.86
72925;BME280;61070;50.794;7.054;2023-12-04T01:08:36;100888.06;;;-0.23;69.27
72925;BME280;61070;50.794;7.054;2023-12-04T01:09:36;100888.91;;;-0.15;69.55
72925;BME280;61070;50.794;7.054;2023-12-04T01:10:38;100890.66;;;-0.08;68.52
72925;BME280;61070;50.794;7.054;2023-12-04T01:11:39;100890.66;;;-0.27;69.36
72925;BME280;61070;50.794;7.054;2023-12-04T01:12:39;100889.78;;;-0.26;69.23
72925;BME280;61070;50.794;7.054;2023-12-04T01:13:39;100893.25;;;-0.14;69.16
72925;BME280;61070;50.794;7.054;2023-12-04T01:14:40;100890.63;;;-0.20;69.13
72925;BME280;61070;50.794;7.054;2023-12-04T01:15:40;100884.63;;;-0.26;69.30
72925;BME280;61070;50.794;7.054;2023-12-04T01:16:41;100893.22;;;-0.17;69.32
72925;BME280;61070;50.794;7.054;2023-12-04T01:17:42;100884.63;;;-0.27;69.81
72925;BME280;61070;50.794;7.054;2023-12-04T01:18:42;100885.50;;;-0.37;70.30
72925;BME280;61070;50.794;7.054;2023-12-04T01:19:42;100895.81;;;-0.27;69.58
72925;BME280;61070;50.794;7.054;2023-12-04T01:20:42;100884.63;;;-0.19;69.32
72925;BME280;61070;50.794;7.054;2023-12-04T01:21:43;100894.09;;;-0.28;69.51
72925;BME280;61070;50.794;7.054;2023-12-04T01:22:43;100879.47;;;-0.27;69.36
72925;BME280;61070;50.794;7.054;2023-12-04T01:23:43;100880.31;;;-0.25;69.39
72925;BME280;61070;50.794;7.054;2023-12-04T01:24:44;100876.00;;;-0.17;69.55
72925;BME280;61070;50.794;7.054;2023-12-04T01:25:44;100875.19;;;-0.30;69.55
72925;BME280;61070;50.794;7.054;2023-12-04T01:26:44;100869.13;;;-0.27;69.45
72925;BME280;61070;50.794;7.054;2023-12-04T01:27:45;100869.13;;;-0.16;69.43
72925;BME280;61070;50.794;7.054;2023-12-04T01:28:45;100866.56;;;-0.27;70.07
72925;BME280;61070;50.794;7.054;2023-12-04T01:29:45;100882.03;;;-0.22;69.90
72925;BME280;61070;50.794;7.054;2023-12-04T01:30:45;100876.03;;;-0.28;70.07
72925;BME280;61070;50.794;7.054;2023-12-04T01:31:46;100876.00;;;-0.21;69.87
72925;BME280;61070;50.794;7.054;2023-12-04T01:32:46;100876.03;;;-0.29;69.81
72925;BME280;61070;50.794;7.054;2023-12-04T01:33:46;100875.16;;;-0.20;69.76
72925;BME280;61070;50.794;7.054;2023-12-04T01:34:47;100879.47;;;-0.24;69.75
72925;BME280;61070;50.794;7.054;2023-12-04T01:35:47;100876.88;;;-0.16;69.67
72925;BME280;61070;50.794;7.054;2023-12-04T01:36:47;100874.28;;;-0.13;69.02
72925;BME280;61070;50.794;7.054;2023-12-04T01:37:47;100870.00;;;-0.14;68.64
72925;BME280;61070;50.794;7.054;2023-12-04T01:38:48;100867.44;;;-0.33;69.17
72925;BME280;61070;50.794;7.054;2023-12-04T01:39:48;100880.31;;;-0.22;69.11
72925;BME280;61070;50.794;7.054;2023-12-04T01:40:48;100875.16;;;-0.08;68.66
72925;BME280;61070;50.794;7.054;2023-12-04T01:41:49;100871.72;;;-0.16;69.55
72925;BME280;61070;50.794;7.054;2023-12-04T01:42:49;100867.41;;;-0.27;69.47
72925;BME280;61070;50.794;7.054;2023-12-04T01:43:49;100873.44;;;-0.14;69.24
72925;BME280;61070;50.794;7.054;2023-12-04T01:44:50;100874.31;;;-0.27;69.69
72925;BME280;61070;50.794;7.054;2023-12-04T01:45:51;100868.28;;;-0.32;69.76
72925;BME280;61070;50.794;7.054;2023-12-04T01:46:52;100857.94;;;-0.31;70.07
72925;BME280;61070;50.794;7.054;2023-12-04T01:47:52;100860.53;;;-0.23;69.58
72925;BME280;61070;50.794;7.054;2023-12-04T01:48:53;100856.25;;;-0.19;69.36
72925;BME280;61070;50.794;7.054;2023-12-04T01:49:54;100856.25;;;-0.19;69.05
72925;BME280;61070;50.794;7.054;2023-12-04T01:50:55;100860.53;;;-0.20;69.40
72925;BME280;61070;50.794;7.054;2023-12-04T01:51:57;100855.38;;;-0.29;69.37
72925;BME280;61070;50.794;7.054;2023-12-04T01:52:58;100851.94;;;-0.28;69.03
72925;BME280;61070;50.794;7.054;2023-12-04T01:54:00;100851.94;;;-0.30;68.96
72925;BME280;61070;50.794;7.054;2023-12-04T01:55:04;100849.31;;;-0.11;68.40
72925;BME280;61070;50.794;7.054;2023-12-04T01:56:05;100846.78;;;-0.23;69.19
72925;BME280;61070;50.794;7.054;2023-12-04T01:57:06;100847.66;;;-0.34;69.20
72925;BME280;61070;50.794;7.054;2023-12-04T01:58:07;100844.19;;;-0.37;69.02
72925;BME280;61070;50.794;7.054;2023-12-04T01:59:08;100843.31;;;-0.27;68.88
72925;BME280;61070;50.794;7.054;2023-12-04T02:00:09;100840.75;;;-0.15;68.87
72925;BME280;61070;50.794;7.054;2023-12-04T02:01:11;100848.47;;;-0.22;68.85
72925;BME280;61070;50.794;7.054;2023-12-04T02:02:12;100843.34;;;-0.29;68.05
72925;BME280;61070;50.794;7.054;2023-12-04T02:03:13;100841.59;;;-0.31;68.55
72925;BME280;61070;50.794;7.054;2023-12-04T02:04:13;100839.00;;;-0.27;68.45
72925;BME280;61070;50.794;7.054;2023-12-04T02:05:14;100839.88;;;-0.17;68.59
72925;BME280;61070;50.794;7.054;2023-12-04T02:06:16;100834.72;;;-0.29;68.48
72925;BME280;61070;50.794;7.054;2023-12-04T02:07:16;100835.56;;;-0.22;68.23
72925;BME280;61070;50.794;7.054;2023-12-04T02:08:17;100834.72;;;-0.26;68.13
72925;BME280;61070;50.794;7.054;2023-12-04T02:09:18;100839.88;;;-0.28;68.44
72925;BME280;61070;50.794;7.054;2023-12-04T02:10:19;100841.59;;;-0.28;68.14
72925;BME280;61070;50.794;7.054;2023-12-04T02:11:19;100838.16;;;-0.24;68.21
72925;BME280;61070;50.794;7.054;2023-12-04T02:12:19;100831.25;;;-0.20;67.91
72925;BME280;61070;50.794;7.054;2023-12-04T02:13:20;100833.84;;;-0.22;68.44
72925;BME280;61070;50.794;7.054;2023-12-04T02:14:20;100839.03;;;-0.28;68.39
72925;BME280;61070;50.794;7.054;2023-12-04T02:15:21;100831.25;;;-0.11;67.97
72925;BME280;61070;50.794;7.054;2023-12-04T02:16:23;100826.09;;;-0.13;67.99
72925;BME280;61070;50.794;7.054;2023-12-04T02:17:27;100829.53;;;-0.15;67.94
72925;BME280;61070;50.794;7.054;2023-12-04T02:18:29;100839.00;;;-0.16;67.54
72925;BME280;61070;50.794;7.054;2023-12-04T02:19:29;100837.25;;;-0.06;67.48
72925;BME280;61070;50.794;7.054;2023-12-04T02:20:33;100825.22;;;-0.12;67.11
72925;BME280;61070;50.794;7.054;2023-12-04T02:21:33;100839.00;;;-0.17;67.45
72925;BME280;61070;50.794;7.054;2023-12-04T02:22:34;100841.59;;;-0.27;67.60
72925;BME280;61070;50.794;7.054;2023-12-04T02:23:34;100836.41;;;-0.11;66.99
72925;BME280;61070;50.794;7.054;2023-12-04T02:24:35;100835.56;;;-0.27;67.74
72925;BME280;61070;50.794;7.054;2023-12-04T02:25:35;100847.63;;;-0.29;68.06
72925;BME280;61070;50.794;7.054;2023-12-04T02:26:44;100829.53;;;-0.26;68.06
72925;BME280;61070;50.794;7.054;2023-12-04T02:27:49;100824.38;;;-0.26;68.26
72925;BME280;61070;50.794;7.054;2023-12-04T02:28:55;100837.31;;;-0.20;68.18
72925;BME280;61070;50.794;7.054;2023-12-04T02:30:01;100830.41;;;-0.19;67.98
72925;BME280;61070;50.794;7.054;2023-12-04T02:31:04;100834.72;;;-0.18;67.35
72925;BME280;61070;50.794;7.054;2023-12-04T02:32:05;100833.00;;;-0.27;67.44
72925;BME280;61070;50.794;7.054;2023-12-04T02:33:08;100818.38;;;-0.28;67.78
72925;BME280;61070;50.794;7.054;2023-12-04T02:34:12;100824.41;;;-0.20;67.72
72925;BME280;61070;50.794;7.054;2023-12-04T02:35:15;100822.63;;;-0.10;66.68
72925;BME280;61070;50.794;7.054;2023-12-04T02:36:16;100807.13;;;-0.10;66.87
72925;BME280;61070;50.794;7.054;2023-12-04T02:37:18;100812.34;;;-0.24;67.38
72925;BME280;61070;50.794;7.054;2023-12-04T02:38:19;100810.59;;;-0.20;67.18
72925;BME280;61070;50.794;7.054;2023-12-04T02:39:20;100803.72;;;-0.23;66.93
72925;BME280;61070;50.794;7.054;2023-12-04T02:40:21;100801.09;;;-0.02;66.67
72925;BME280;61070;50.794;7.054;2023-12-04T02:41:22;100799.41;;;-0.16;67.05
72925;BME280;61070;50.794;7.054;2023-12-04T02:42:22;100802.00;;;-0.26;67.57
72925;BME280;61070;50.794;7.054;2023-12-04T02:43:25;100800.28;;;-0.25;67.49
72925;BME280;61070;50.794;7.054;2023-12-04T02:44:25;100802.88;;;-0.36;67.49
72925;BME280;61070;50.794;7.054;2023-12-04T02:45:25;100802.88;;;-0.27;67.43
72925;BME280;61070;50.794;7.054;2023-12-04T02:46:25;100797.72;;;-0.30;67.68
72925;BME280;61070;50.794;7.054;2023-12-04T02:47:26;100802.00;;;-0.27;67.69
72925;BME280;61070;50.794;7.054;2023-12-04T02:48:26;100806.34;;;-0.34;67.33
72925;BME280;61070;50.794;7.054;2023-12-04T02:49:26;100805.47;;;-0.34;67.48
72925;BME280;61070;50.794;7.054;2023-12-04T02:50:26;100790.00;;;-0.37;68.09
72925;BME280;61070;50.794;7.054;2023-12-04T02:51:27;100800.31;;;-0.37;67.58
72925;BME280;61070;50.794;7.054;2023-12-04T02:52:27;100796.88;;;-0.44;67.72
72925;BME280;61070;50.794;7.054;2023-12-04T02:53:27;100790.00;;;-0.30;67.75
72925;BME280;61070;50.794;7.054;2023-12-04T02:54:28;100792.56;;;-0.28;67.28
72925;BME280;61070;50.794;7.054;2023-12-04T02:55:28;100788.25;;;-0.31;66.93
72925;BME280;61070;50.794;7.054;2023-12-04T02:56:29;100784.81;;;-0.23;67.17
72925;BME280;61070;50.794;7.054;2023-12-04T02:57:29;100787.38;;;-0.36;67.41
72925;BME280;61070;50.794;7.054;2023-12-04T02:58:29;100791.69;;;-0.27;66.59
72925;BME280;61070;50.794;7.054;2023-12-04T02:59:29;100792.56;;;-0.23;66.57
72925;BME280;61070;50.794;7.054;2023-12-04T03:00:30;100789.09;;;-0.22;66.21
72925;BME280;61070;50.794;7.054;2023-12-04T03:01:30;100785.69;;;-0.37;67.20
72925;BME280;61070;50.794;7.054;2023-12-04T03:02:30;100793.44;;;-0.34;67.17
72925;BME280;61070;50.794;7.054;2023-12-04T03:03:30;100787.41;;;-0.39;67.26
72925;BME280;61070;50.794;7.054;2023-12-04T03:04:31;100785.69;;;-0.46;67.84
72925;BME280;61070;50.794;7.054;2023-12-04T03:05:32;100780.53;;;-0.46;68.08
72925;BME280;61070;50.794;7.054;2023-12-04T03:06:32;100778.78;;;-0.29;67.58
72925;BME280;61070;50.794;7.054;2023-12-04T03:07:32;100789.09;;;-0.30;67.02
72925;BME280;61070;50.794;7.054;2023-12-04T03:08:32;100784.81;;;-0.40;67.44
72925;BME280;61070;50.794;7.054;2023-12-04T03:09:33;100791.69;;;-0.32;67.22
72925;BME280;61070;50.794;7.054;2023-12-04T03:10:33;100799.41;;;-0.21;67.18
72925;BME280;61070;50.794;7.054;2023-12-04T03:11:33;100777.91;;;-0.20;66.84
72925;BME280;61070;50.794;7.054;2023-12-04T03:12:33;100777.06;;;-0.28;66.99
72925;BME280;61070;50.794;7.054;2023-12-04T03:13:34;100780.50;;;-0.32;66.89
72925;BME280;61070;50.794;7.054;2023-12-04T03:14:34;100779.66;;;-0.30;66.96
72925;BME280;61070;50.794;7.054;2023-12-04T03:15:34;100781.34;;;-0.26;67.10
72925;BME280;61070;50.794;7.054;2023-12-04T03:16:35;100777.06;;;-0.31;67.10
72925;BME280;61070;50.794;7.054;2023-12-04T03:17:35;100778.81;;;-0.38;67.11
72925;BME280;61070;50.794;7.054;2023-12-04T03:18:35;100776.19;;;-0.30;67.18
72925;BME280;61070;50.794;7.054;2023-12-04T03:19:36;100777.91;;;-0.35;67.16
72925;BME280;61070;50.794;7.054;2023-12-04T03:20:36;100764.19;;;-0.37;67.60
72925;BME280;61070;50.794;7.054;2023-12-04T03:21:36;100771.06;;;-0.38;67.45
72925;BME280;61070;50.794;7.054;2023-12-04T03:22:37;100758.13;;;-0.32;67.57
72925;BME280;61070;50.794;7.054;2023-12-04T03:23:37;100765.91;;;-0.38;67.31
72925;BME280;61070;50.794;7.054;2023-12-04T03:24:37;100759.03;;;-0.46;67.52
72925;BME280;61070;50.794;7.054;2023-12-04T03:25:38;100763.31;;;-0.42;67.59
72925;BME280;61070;50.794;7.054;2023-12-04T03:26:38;100765.88;;;-0.33;67.43
72925;BME280;61070;50.794;7.054;2023-12-04T03:27:38;100757.31;;;-0.47;68.02
72925;BME280;61070;50.794;7.054;2023-12-04T03:28:39;100765.03;;;-0.29;67.31
72925;BME280;61070;50.794;7.054;2023-12-04T03:29:40;100765.00;;;-0.31;66.89
72925;BME280;61070;50.794;7.054;2023-12-04T03:30:41;100770.16;;;-0.23;67.16
72925;BME280;61070;50.794;7.054;2023-12-04T03:31:44;100759.00;;;-0.36;67.69
72925;BME280;61070;50.794;7.054;2023-12-04T03:32:44;100766.75;;;-0.34;68.23
72925;BME280;61070;50.794;7.054;2023-12-04T03:33:44;100763.31;;;-0.35;68.12
72925;BME280;61070;50.794;7.054;2023-12-04T03:34:44;100759.03;;;-0.42;68.33
72925;BME280;61070;50.794;7.054;2023-12-04T03:35:45;100755.56;;;-0.38;67.96
72925;BME280;61070;50.794;7.054;2023-12-04T03:36:45;100759.91;;;-0.54;68.46
72925;BME280;61070;50.794;7.054;2023-12-04T03:37:45;100756.44;;;-0.45;68.19
72925;BME280;61070;50.794;7.054;2023-12-04T03:38:46;100765.06;;;-0.52;68.06
72925;BME280;61070;50.794;7.054;2023-12-04T03:39:46;100756.47;;;-0.59;68.50
72925;BME280;61070;50.794;7.054;2023-12-04T03:40:46;100750.44;;;-0.39;68.24
72925;BME280;61070;50.794;7.054;2023-12-04T03:41:47;100753.88;;;-0.49;67.55
72925;BME280;61070;50.794;7.054;2023-12-04T03:42:47;100759.91;;;-0.40;67.60
72925;BME280;61070;50.794;7.054;2023-12-04T03:43:47;100753.84;;;-0.36;67.63
72925;BME280;61070;50.794;7.054;2023-12-04T03:44:48;100746.09;;;-0.33;67.46
72925;BME280;61070;50.794;7.054;2023-12-04T03:45:48;100747.81;;;-0.41;68.40
72925;BME280;61070;50.794;7.054;2023-12-04T03:46:48;100742.66;;;-0.41;68.16
72925;BME280;61070;50.794;7.054;2023-12-04T03:47:48;100748.69;;;-0.40;67.53
72925;BME280;61070;50.794;7.054;2023-12-04T03:48:49;100746.13;;;-0.39;67.84
72925;BME280;61070;50.794;7.054;2023-12-04T03:49:49;100739.22;;;-0.46;67.67
72925;BME280;61070;50.794;7.054;2023-12-04T03:50:49;100744.41;;;-0.38;67.52
72925;BME280;61070;50.794;7.054;2023-12-04T03:51:50;100736.63;;;-0.37;67.60
72925;BME280;61070;50.794;7.054;2023-12-04T03:52:50;100739.19;;;-0.31;67.24
72925;BME280;61070;50.794;7.054;2023-12-04T03:53:50;100738.34;;;-0.36;67.34
72925;BME280;61070;50.794;7.054;2023-12-04T03:54:50;100740.06;;;-0.36;67.25
72925;BME280;61070;50.794;7.054;2023-12-04T03:55:51;100732.34;;;-0.45;67.70
72925;BME280;61070;50.794;7.054;2023-12-04T03:56:51;100740.97;;;-0.51;67.95
72925;BME280;61070;50.794;7.054;2023-12-04T03:57:52;100740.94;;;-0.37;67.19
72925;BME280;61070;50.794;7.054;2023-12-04T03:58:53;100739.25;;;-0.43;67.46
72925;BME280;61070;50.794;7.054;2023-12-04T03:59:53;100735.78;;;-0.46;67.60
72925;BME280;61070;50.794;7.054;2023-12-04T04:00:53;100737.53;;;-0.39;67.78
72925;BME280;61070;50.794;7.054;2023-12-04T04:01:54;100734.94;;;-0.39;66.95
72925;BME280;61070;50.794;7.054;2023-12-04T04:02:54;100743.56;;;-0.48;67.60
72925;BME280;61070;50.794;7.054;2023-12-04T04:03:54;100731.53;;;-0.54;67.80
72925;BME280;61070;50.794;7.054;2023-12-04T04:04:55;100726.38;;;-0.58;67.75
72925;BME280;61070;50.794;7.054;2023-12-04T04:05:55;100736.69;;;-0.58;68.23
72925;BME280;61070;50.794;7.054;2023-12-04T04:06:55;100726.34;;;-0.49;68.10
72925;BME280;61070;50.794;7.054;2023-12-04T04:07:55;100733.22;;;-0.60;68.20
72925;BME280;61070;50.794;7.054;2023-12-04T04:08:56;100726.38;;;-0.54;68.19
72925;BME280;61070;50.794;7.054;2023-12-04T04:09:56;100731.53;;;-0.61;68.31
72925;BME280;61070;50.794;7.054;2023-12-04T04:10:56;100734.97;;;-0.53;68.23
72925;BME280;61070;50.794;7.054;2023-12-04T04:11:56;100736.69;;;-0.54;68.32
72925;BME280;61070;50.794;7.054;2023-12-04T04:12:57;100732.34;;;-0.39;67.75
72925;BME280;61070;50.794;7.054;2023-12-04T04:13:57;100735.78;;;-0.36;67.57
72925;BME280;61070;50.794;7.054;2023-12-04T04:14:57;100726.34;;;-0.52;67.52
72925;BME280;61070;50.794;7.054;2023-12-04T04:15:58;100740.09;;;-0.38;68.16
72925;BME280;61070;50.794;7.054;2023-12-04T04:16:58;100732.38;;;-0.48;67.82
72925;BME280;61070;50.794;7.054;2023-12-04T04:17:58;100728.91;;;-0.55;67.81
72925;BME280;61070;50.794;7.054;2023-12-04T04:18:58;100732.38;;;-0.48;67.87
72925;BME280;61070;50.794;7.054;2023-12-04T04:19:59;100726.38;;;-0.60;68.32
72925;BME280;61070;50.794;7.054;2023-12-04T04:20:59;100724.63;;;-0.56;67.74
72925;BME280;61070;50.794;7.054;2023-12-04T04:22:00;100714.28;;;-0.50;67.79
72925;BME280;61070;50.794;7.054;2023-12-04T04:23:00;100718.59;;;-0.47;67.64
72925;BME280;61070;50.794;7.054;2023-12-04T04:24:01;100711.69;;;-0.42;67.61
72925;BME280;61070;50.794;7.054;2023-12-04T04:25:01;100705.69;;;-0.46;68.00
72925;BME280;61070;50.794;7.054;2023-12-04T04:26:01;100705.69;;;-0.46;67.43
72925;BME280;61070;50.794;7.054;2023-12-04T04:27:02;100703.13;;;-0.55;67.91
72925;BME280;61070;50.794;7.054;2023-12-04T04:28:03;100708.28;;;-0.49;68.23
72925;BME280;61070;50.794;7.054;2023-12-04T04:29:03;100705.72;;;-0.58;68.35
72925;BME280;61070;50.794;7.054;2023-12-04T04:30:04;100698.78;;;-0.41;68.14
72925;BME280;61070;50.794;7.054;2023-12-04T04:31:04;100703.13;;;-0.54;67.86
72925;BME280;61070;50.794;7.054;2023-12-04T04:32:05;100703.13;;;-0.57;68.09
72925;BME280;61070;50.794;7.054;2023-12-04T04:33:05;100695.38;;;-0.50;68.21
72925;BME280;61070;50.794;7.054;2023-12-04T04:34:06;100701.41;;;-0.53;68.38
72925;BME280;61070;50.794;7.054;2023-12-04T04:35:07;100697.97;;;-0.52;68.25
72925;BME280;61070;50.794;7.054;2023-12-04T04:36:09;100698.78;;;-0.42;68.61
72925;BME280;61070;50.794;7.054;2023-12-04T04:37:10;100694.50;;;-0.42;67.63
72925;BME280;61070;50.794;7.054;2023-12-04T04:38:10;100689.34;;;-0.51;67.92
72925;BME280;61070;50.794;7.054;2023-12-04T04:39:12;100701.41;;;-0.53;68.30
72925;BME280;61070;50.794;7.054;2023-12-04T04:40:13;100690.22;;;-0.49;68.18
72925;BME280;61070;50.794;7.054;2023-12-04T04:41:14;100689.34;;;-0.42;68.33
72925;BME280;61070;50.794;7.054;2023-12-04T04:42:17;100688.47;;;-0.38;67.78
72925;BME280;61070;50.794;7.054;2023-12-04T04:43:19;100679.88;;;-0.46;68.18
72925;BME280;61070;50.794;7.054;2023-12-04T04:44:19;100685.91;;;-0.44;68.38
72925;BME280;61070;50.794;7.054;2023-12-04T04:45:20;100689.34;;;-0.56;68.59
72925;BME280;61070;50.794;7.054;2023-12-04T04:46:20;100681.63;;;-0.49;68.45
72925;BME280;61070;50.794;7.054;2023-12-04T04:47:20;100691.97;;;-0.54;68.44
72925;BME280;61070;50.794;7.054;2023-12-04T04:48:21;100691.06;;;-0.52;68.32
72925;BME280;61070;50.794;7.054;2023-12-04T04:49:21;100697.97;;;-0.52;68.70
72925;BME280;61070;50.794;7.054;2023-12-04T04:50:21;100695.41;;;-0.54;69.06
72925;BME280;61070;50.794;7.054;2023-12-04T04:51:21;100695.38;;;-0.50;68.83
72925;BME280;61070;50.794;7.054;2023-12-04T04:52:22;100682.50;;;-0.54;68.91
72925;BME280;61070;50.794;7.054;2023-12-04T04:53:22;100691.97;;;-0.59;68.98
72925;BME280;61070;50.794;7.054;2023-12-04T04:54:23;100700.53;;;-0.50;68.45
72925;BME280;61070;50.794;7.054;2023-12-04T04:55:23;100698.84;;;-0.55;68.82
72925;BME280;61070;50.794;7.054;2023-12-04T04:56:24;100689.34;;;-0.46;68.87
72925;BME280;61070;50.794;7.054;2023-12-04T04:57:24;100692.81;;;-0.52;68.46
72925;BME280;61070;50.794;7.054;2023-12-04T04:58:24;100685.91;;;-0.44;68.40
72925;BME280;61070;50.794;7.054;2023-12-04T04:59:25;100699.69;;;-0.48;68.56
72925;BME280;61070;50.794;7.054;2023-12-04T05:00:25;100689.31;;;-0.45;68.74
72925;BME280;61070;50.794;7.054;2023-12-04T05:01:25;100691.09;;;-0.62;68.88
72925;BME280;61070;50.794;7.054;2023-12-04T05:02:25;100690.25;;;-0.61;68.99
72925;BME280;61070;50.794;7.054;2023-12-04T05:03:26;100697.94;;;-0.47;68.81
72925;BME280;61070;50.794;7.054;2023-12-04T05:04:26;100685.94;;;-0.61;69.19
72925;BME280;61070;50.794;7.054;2023-12-04T05:05:26;100682.50;;;-0.63;69.38
72925;BME280;61070;50.794;7.054;2023-12-04T05:06:27;100678.19;;;-0.53;69.15
72925;BME280;61070;50.794;7.054;2023-12-04T05:07:27;100677.31;;;-0.52;69.28
72925;BME280;61070;50.794;7.054;2023-12-04T05:08:27;100675.59;;;-0.53;68.82
72925;BME280;61070;50.794;7.054;2023-12-04T05:09:28;100685.09;;;-0.60;69.18
72925;BME280;61070;50.794;7.054;2023-12-04T05:10:28;100685.09;;;-0.64;69.32
72925;BME280;61070;50.794;7.054;2023-12-04T05:11:28;100679.06;;;-0.54;69.26
72925;BME280;61070;50.794;7.054;2023-12-04T05:12:29;100685.94;;;-0.61;69.44
72925;BME280;61070;50.794;7.054;2023-12-04T05:13:29;100688.50;;;-0.53;69.28
72925;BME280;61070;50.794;7.054;2023-12-04T05:14:29;100676.44;;;-0.48;69.11
72925;BME280;61070;50.794;7.054;2023-12-04T05:15:29;100683.34;;;-0.56;69.58
72925;BME280;61070;50.794;7.054;2023-12-04T05:16:30;100684.22;;;-0.65;69.53